Terminal Aerodrome Forecast
Issued by NWS

Home | Current Version | Previous Version | Text Only | Print | Product List | Glossary On
Versions: 1 2 3 4 5 6 7 8 9 10 11 12 13 14 15 16 17 18 19 20 21 22 23 24 25 26 27 28 29 30 31 32
000
FTUS45 KSLC 080017 AAA
TAFBCE
TAF AMD
KBCE 080017Z 0800/0824 14007KT P6SM VCSH SCT060 BKN100
      TEMPO 0800/0801 VRB10G20KT -TSRA BKN060CB
     FM080300 27006KT P6SM SCT080 BKN150
     FM081600 15008KT P6SM SCT070 BKN120
     FM081900 20010G15KT P6SM VCSH SCT060 BKN100=

USA.gov is the U.S. government's official web portal to all federal, state and local government web resources and services.